Flight Track Log - Related Links

Times and Time Zones

All times are in EDT time to prevent confusion due to time zone crossing. See the RXA823 flight status page for this flight to view local times or setup timezone preferences in your user account.

Time Position Orientation Groundspeed Altitude Reporting Facility
EDT Latitude Longitude Course Direction KTS MPH feet Rate Location/Type
Thu 06:11:45 PM -32.3430 148.6709 147° Southeast 18,200  Level Aus ATC (Calculated)
Thu 06:12:46 PM -32.4046 148.7176 145° Southeast 18,200 -2,196 Level Aus ATC (Calculated)
Thu 06:13:30 PM -32.4662 148.7643 329° Northwest 18,200 -2,966 Level Aus ATC (Calculated)
Thu 06:15:05 PM -32.5278 148.8112 328° Northwest 18,200 -3,969 Level Aus ATC (Calculated)
Thu 06:15:40 PM -32.4297 148.7381 145° Southeast 189 217 9,600 -6,857 Descending Aus ATC (RADAR)
Thu 06:16:15 PM -32.4539 148.7581 148° Southeast 185 213 10,200 835 Climbing Aus ATC (RADAR)
Thu 06:17:35 PM -32.5163 148.8040 146° Southeast 208 239 11,200 729 Climbing Aus ATC (RADAR)
Thu 06:18:35 PM -32.5656 148.8432 148° Southeast 214 246 11,900 686 Climbing Aus ATC (RADAR)
Thu 06:19:20 PM -32.6046 148.8716 147° Southeast 220 253 12,400 759 Climbing Aus ATC (RADAR)
Thu 06:19:54 PM -32.6338 148.8943 147° Southeast 215 247 12,900 943 Climbing Aus ATC (RADAR)
Thu 06:20:30 PM -32.6624 148.9160 147° Southeast 209 241 13,500 1,014 Climbing Aus ATC (RADAR)
Thu 06:21:05 PM -32.6901 148.9375 147° Southeast 205 236 14,100 943 Climbing Aus ATC (RADAR)
Thu 06:21:40 PM -32.7177 148.9588 147° Southeast 202 232 14,600 826 Climbing Aus ATC (RADAR)
Thu 06:22:54 PM -32.7765 149.0038 147° Southeast 205 236 15,600 756 Climbing Aus ATC (RADAR)
Thu 06:23:55 PM -32.8262 149.0420 146° Southeast 214 246 16,300 743 Climbing Aus ATC (RADAR)
Thu 06:24:39 PM -32.8636 149.0715 147° Southeast 214 246 16,900 750 Climbing Aus ATC (RADAR)
Thu 06:25:15 PM -32.8923 149.0937 147° Southeast 210 242 17,300 675 Climbing Aus ATC (RADAR)
Thu 06:25:59 PM -32.9290 149.1216 147° Southeast 208 239 17,800 542 Climbing Aus ATC (RADAR)
Thu 06:27:39 PM -33.0129 149.1867 147° Southeast 222 255 18,600 426 Climbing Aus ATC (RADAR)
Thu 06:28:34 PM -33.0609 149.2243 147° Southeast 227 261 18,900 400 Climbing Aus ATC (RADAR)
Thu 06:29:09 PM -33.0924 149.2489 147° Southeast 231 266 19,200 228 Climbing Aus ATC (RADAR)
Thu 06:29:53 PM -33.1335 149.2810 147° Southeast 237 273 19,200  Level Aus ATC (RADAR)
Thu 06:30:28 PM -33.1679 149.3072 147° Southeast 251 289 19,200  Level Aus ATC (RADAR)
Thu 06:31:18 PM -33.2180 149.3467 147° Southeast 259 298 19,200  Level Aus ATC (RADAR)
Thu 06:33:13 PM -33.3391 149.4415 147° Southeast 277 319 19,200  Level Aus ATC (RADAR)
Thu 06:34:13 PM -33.4035 149.4914 139° Southeast 277 319 19,200  Level Aus ATC (RADAR)
Thu 06:34:58 PM -33.4474 149.5368 127° Southeast 277 319 19,200  Level Aus ATC (RADAR)
Thu 06:35:33 PM -33.4753 149.5815 128° Southeast 284 327 19,200  Level Aus ATC (RADAR)
Thu 06:36:18 PM -33.5120 149.6382 129° Southeast 285 328 19,200  Level Aus ATC (RADAR)
Thu 06:37:58 PM -33.5947 149.7626 128° Southeast 283 326 19,200  Level Aus ATC (RADAR)
Thu 06:38:57 PM -33.6447 149.8383 128° Southeast 286 329 19,200  Level Aus ATC (RADAR)
Thu 06:39:42 PM -33.6821 149.8951 129° Southeast 286 329 19,200  Level Aus ATC (RADAR)
Thu 06:40:17 PM -33.7112 149.9389 128° Southeast 285 328 19,200  Level Aus ATC (RADAR)
Thu 06:40:52 PM -33.7401 149.9828 128° Southeast 284 327 19,200  Level Aus ATC (RADAR)
Thu 06:41:27 PM -33.7688 150.0264 128° Southeast 282 325 19,200  Level Aus ATC (RADAR)
Thu 06:42:02 PM -33.7976 150.0702 128° Southeast 281 323 19,200 -1,059 Level Aus ATC (RADAR)
Thu 06:43:26 PM -33.8699 150.1801 128° Southeast 294 338 17,100 -1,554 Descending Aus ATC (RADAR)
Thu 06:44:21 PM -33.9181 150.2538 128° Southeast 301 346 15,600 -1,500 Descending Aus ATC (RADAR)
Thu 06:45:02 PM -33.9529 150.3076 128° Southeast 298 343 14,700 -1,440 Descending Aus ATC (RADAR)
Thu 06:46:01 PM -34.0050 150.3877 128° Southeast 294 338 13,200 -1,389 Descending Aus ATC (RADAR)
Thu 06:46:50 PM -34.0464 150.4516 114° Southeast 281 323 12,200 -1,311 Descending Aus ATC (RADAR)
Thu 06:48:00 PM -34.0833 150.5507 75° East 282 325 10,600 -1,400 Descending Aus ATC (RADAR)
Thu 06:48:50 PM -34.0658 150.6301 74° East 281 323 9,400 -1,482 Descending Aus ATC (RADAR)
Thu 06:49:25 PM -34.0530 150.6842 75° East 275 316 8,500 -1,500 Descending Aus ATC (RADAR)
Thu 06:50:10 PM -34.0382 150.7511 76° East 262 302 7,400 -1,350 Descending Aus ATC (RADAR)
Thu 06:50:45 PM -34.0276 150.8015 88° East 256 295 6,700 -988 Descending Aus ATC (RADAR)
Thu 06:51:35 PM -34.0259 150.8752 93° East 259 298 6,000 -280 Descending Aus ATC (RADAR)
Thu 06:53:15 PM -34.0324 151.0223 154° Southeast 256 295 6,000 -150 Level Aus ATC (RADAR)
Thu 06:54:15 PM -34.0890 151.0559 123° Southeast 230 265 5,600 -818 Descending Aus ATC (RADAR)
Thu 06:55:05 PM -34.1157 151.1065 93° East 213 245 4,500 -1,271 Descending Aus ATC (RADAR)
Thu 06:55:40 PM -34.1177 151.1469 43° Northeast 202 232 3,800 -1,275 Descending Aus ATC (RADAR)
Thu 06:56:25 PM -34.0891 151.1785 10° North 198 228 2,800 -1,114 Descending Aus ATC (RADAR)
Thu 06:58:00 PM -34.0138 151.1939 348° North 144 166 1,200 -958 Descending Aus ATC (RADAR)
Thu 06:58:49 PM -33.9820 151.1854 348° North 138 159 500 -857 Descending Aus ATC (RADAR)

Login

Don't have an account? Register now (free) for customized features, flight alerts, and more!